sensor_id;sensor_type;location;lat;lon;timestamp;temperature;humidity
15947;DHT22;8072;52.554;7.966;2023-04-06T00:01:40;2.70;99.90
15947;DHT22;8072;52.554;7.966;2023-04-06T00:04:06;2.70;99.90
15947;DHT22;8072;52.554;7.966;2023-04-06T00:06:32;2.70;99.90
15947;DHT22;8072;52.554;7.966;2023-04-06T00:08:59;2.70;99.90
15947;DHT22;8072;52.554;7.966;2023-04-06T00:11:25;2.60;99.90
15947;DHT22;8072;52.554;7.966;2023-04-06T00:13:51;2.60;99.90
15947;DHT22;8072;52.554;7.966;2023-04-06T00:16:17;2.60;99.90
15947;DHT22;8072;52.554;7.966;2023-04-06T00:18:43;2.60;99.90
15947;DHT22;8072;52.554;7.966;2023-04-06T00:21:14;2.60;99.90
15947;DHT22;8072;52.554;7.966;2023-04-06T00:23:41;2.50;99.90
15947;DHT22;8072;52.554;7.966;2023-04-06T00:26:08;2.50;99.90
15947;DHT22;8072;52.554;7.966;2023-04-06T00:28:33;2.50;99.90
15947;DHT22;8072;52.554;7.966;2023-04-06T00:30:59;2.50;99.90
15947;DHT22;8072;52.554;7.966;2023-04-06T00:33:25;2.50;99.90
15947;DHT22;8072;52.554;7.966;2023-04-06T00:35:51;2.50;99.90
15947;DHT22;8072;52.554;7.966;2023-04-06T00:38:17;2.40;99.90
15947;DHT22;8072;52.554;7.966;2023-04-06T00:40:44;2.40;99.90
15947;DHT22;8072;52.554;7.966;2023-04-06T00:43:11;2.40;99.90
15947;DHT22;8072;52.554;7.966;2023-04-06T00:45:41;2.40;99.90
15947;DHT22;8072;52.554;7.966;2023-04-06T00:48:07;2.40;99.90
15947;DHT22;8072;52.554;7.966;2023-04-06T00:50:34;2.40;99.90
15947;DHT22;8072;52.554;7.966;2023-04-06T00:53:01;2.30;99.90
15947;DHT22;8072;52.554;7.966;2023-04-06T00:55:27;2.30;99.90
15947;DHT22;8072;52.554;7.966;2023-04-06T00:57:54;2.30;99.90
15947;DHT22;8072;52.554;7.966;2023-04-06T01:00:20;2.20;99.90
15947;DHT22;8072;52.554;7.966;2023-04-06T01:02:46;2.20;99.90
15947;DHT22;8072;52.554;7.966;2023-04-06T01:05:13;2.10;99.90
15947;DHT22;8072;52.554;7.966;2023-04-06T01:07:39;2.10;99.90
15947;DHT22;8072;52.554;7.966;2023-04-06T01:10:05;2.10;99.90
15947;DHT22;8072;52.554;7.966;2023-04-06T01:12:31;2.10;99.90
15947;DHT22;8072;52.554;7.966;2023-04-06T01:14:57;2.10;99.90
15947;DHT22;8072;52.554;7.966;2023-04-06T01:17:23;2.10;99.90
15947;DHT22;8072;52.554;7.966;2023-04-06T01:19:49;2.10;99.90
15947;DHT22;8072;52.554;7.966;2023-04-06T01:22:16;2.00;99.90
15947;DHT22;8072;52.554;7.966;2023-04-06T01:24:42;2.00;99.90
15947;DHT22;8072;52.554;7.966;2023-04-06T01:27:08;2.00;99.90
15947;DHT22;8072;52.554;7.966;2023-04-06T01:29:34;2.00;99.90
15947;DHT22;8072;52.554;7.966;2023-04-06T01:32:00;2.00;99.90
15947;DHT22;8072;52.554;7.966;2023-04-06T01:34:28;2.00;99.90
15947;DHT22;8072;52.554;7.966;2023-04-06T01:36:53;2.00;99.90
15947;DHT22;8072;52.554;7.966;2023-04-06T01:39:20;2.00;99.90
15947;DHT22;8072;52.554;7.966;2023-04-06T01:41:45;2.00;99.90
15947;DHT22;8072;52.554;7.966;2023-04-06T01:44:15;2.00;99.90
15947;DHT22;8072;52.554;7.966;2023-04-06T01:46:41;2.00;99.90
15947;DHT22;8072;52.554;7.966;2023-04-06T01:49:07;2.00;99.90
15947;DHT22;8072;52.554;7.966;2023-04-06T01:51:33;2.00;99.90
15947;DHT22;8072;52.554;7.966;2023-04-06T01:54:00;1.90;99.90
15947;DHT22;8072;52.554;7.966;2023-04-06T01:56:26;1.90;99.90
15947;DHT22;8072;52.554;7.966;2023-04-06T01:58:52;1.80;99.90
15947;DHT22;8072;52.554;7.966;2023-04-06T02:01:17;1.80;99.90
15947;DHT22;8072;52.554;7.966;2023-04-06T02:03:43;1.80;99.90
15947;DHT22;8072;52.554;7.966;2023-04-06T02:06:09;1.80;99.90
15947;DHT22;8072;52.554;7.966;2023-04-06T02:08:35;1.80;99.90
15947;DHT22;8072;52.554;7.966;2023-04-06T02:11:01;1.70;99.90
15947;DHT22;8072;52.554;7.966;2023-04-06T02:13:27;1.70;99.90
15947;DHT22;8072;52.554;7.966;2023-04-06T02:15:53;1.70;99.90
15947;DHT22;8072;52.554;7.966;2023-04-06T02:18:19;1.70;99.90
15947;DHT22;8072;52.554;7.966;2023-04-06T02:20:44;1.70;99.90
15947;DHT22;8072;52.554;7.966;2023-04-06T02:23:11;1.60;99.90
15947;DHT22;8072;52.554;7.966;2023-04-06T02:25:38;1.60;99.90
15947;DHT22;8072;52.554;7.966;2023-04-06T02:28:04;1.60;99.90
15947;DHT22;8072;52.554;7.966;2023-04-06T02:30:29;1.60;99.90
15947;DHT22;8072;52.554;7.966;2023-04-06T02:32:59;1.60;99.90
15947;DHT22;8072;52.554;7.966;2023-04-06T02:35:27;1.60;99.90
15947;DHT22;8072;52.554;7.966;2023-04-06T02:37:54;1.50;99.90
15947;DHT22;8072;52.554;7.966;2023-04-06T02:40:20;1.50;99.90
15947;DHT22;8072;52.554;7.966;2023-04-06T02:42:45;1.50;99.90
15947;DHT22;8072;52.554;7.966;2023-04-06T02:45:11;1.40;99.90
15947;DHT22;8072;52.554;7.966;2023-04-06T02:47:37;1.40;99.90
15947;DHT22;8072;52.554;7.966;2023-04-06T02:50:03;1.40;99.90
15947;DHT22;8072;52.554;7.966;2023-04-06T02:52:29;1.40;99.90
15947;DHT22;8072;52.554;7.966;2023-04-06T02:54:55;1.40;99.90
15947;DHT22;8072;52.554;7.966;2023-04-06T02:57:21;1.40;99.90
15947;DHT22;8072;52.554;7.966;2023-04-06T02:59:46;1.40;99.90
15947;DHT22;8072;52.554;7.966;2023-04-06T03:02:13;1.30;99.90
15947;DHT22;8072;52.554;7.966;2023-04-06T03:04:39;1.30;99.90
15947;DHT22;8072;52.554;7.966;2023-04-06T03:07:05;1.30;99.90
15947;DHT22;8072;52.554;7.966;2023-04-06T03:09:31;1.20;99.90
15947;DHT22;8072;52.554;7.966;2023-04-06T03:11:58;1.30;99.90
15947;DHT22;8072;52.554;7.966;2023-04-06T03:14:24;1.30;99.90
15947;DHT22;8072;52.554;7.966;2023-04-06T03:16:50;1.20;99.90
15947;DHT22;8072;52.554;7.966;2023-04-06T03:19:16;1.20;99.90
15947;DHT22;8072;52.554;7.966;2023-04-06T03:21:42;1.20;99.90
15947;DHT22;8072;52.554;7.966;2023-04-06T03:24:08;1.20;99.90
15947;DHT22;8072;52.554;7.966;2023-04-06T03:26:34;1.20;99.90
15947;DHT22;8072;52.554;7.966;2023-04-06T03:29:00;1.20;99.90
15947;DHT22;8072;52.554;7.966;2023-04-06T03:31:26;1.10;99.90
15947;DHT22;8072;52.554;7.966;2023-04-06T03:33:52;1.10;99.90
15947;DHT22;8072;52.554;7.966;2023-04-06T03:36:18;1.10;99.90
15947;DHT22;8072;52.554;7.966;2023-04-06T03:38:44;1.10;99.90
15947;DHT22;8072;52.554;7.966;2023-04-06T03:41:10;1.10;99.90
15947;DHT22;8072;52.554;7.966;2023-04-06T03:43:43;1.10;99.90
15947;DHT22;8072;52.554;7.966;2023-04-06T03:46:10;1.10;99.90
15947;DHT22;8072;52.554;7.966;2023-04-06T03:48:36;1.00;99.90
15947;DHT22;8072;52.554;7.966;2023-04-06T03:51:02;1.10;99.90
15947;DHT22;8072;52.554;7.966;2023-04-06T03:53:27;1.10;99.90
15947;DHT22;8072;52.554;7.966;2023-04-06T03:55:53;1.00;99.90
15947;DHT22;8072;52.554;7.966;2023-04-06T03:58:19;1.00;99.90
15947;DHT22;8072;52.554;7.966;2023-04-06T04:00:45;1.00;99.90
15947;DHT22;8072;52.554;7.966;2023-04-06T04:03:10;1.00;99.90
15947;DHT22;8072;52.554;7.966;2023-04-06T04:05:36;1.00;99.90
15947;DHT22;8072;52.554;7.966;2023-04-06T04:08:02;0.90;99.90
15947;DHT22;8072;52.554;7.966;2023-04-06T04:10:28;0.90;99.90
15947;DHT22;8072;52.554;7.966;2023-04-06T04:12:54;0.90;99.90
15947;DHT22;8072;52.554;7.966;2023-04-06T04:15:19;0.90;99.90
15947;DHT22;8072;52.554;7.966;2023-04-06T04:17:45;0.90;99.90
15947;DHT22;8072;52.554;7.966;2023-04-06T04:20:15;0.80;99.90
15947;DHT22;8072;52.554;7.966;2023-04-06T04:22:42;0.80;99.90
15947;DHT22;8072;52.554;7.966;2023-04-06T04:25:08;0.80;99.90
15947;DHT22;8072;52.554;7.966;2023-04-06T04:27:35;0.80;99.90
15947;DHT22;8072;52.554;7.966;2023-04-06T04:30:01;0.80;99.90
15947;DHT22;8072;52.554;7.966;2023-04-06T04:32:27;0.80;99.90
15947;DHT22;8072;52.554;7.966;2023-04-06T04:34:54;0.70;99.90
15947;DHT22;8072;52.554;7.966;2023-04-06T04:37:20;0.70;99.90
15947;DHT22;8072;52.554;7.966;2023-04-06T04:39:46;0.70;99.90
15947;DHT22;8072;52.554;7.966;2023-04-06T04:42:11;0.70;99.90
15947;DHT22;8072;52.554;7.966;2023-04-06T04:44:37;0.70;99.90
15947;DHT22;8072;52.554;7.966;2023-04-06T04:47:03;0.60;99.90
15947;DHT22;8072;52.554;7.966;2023-04-06T04:49:29;0.70;99.90
15947;DHT22;8072;52.554;7.966;2023-04-06T04:51:55;0.70;99.90
15947;DHT22;8072;52.554;7.966;2023-04-06T04:54:21;0.60;99.90
15947;DHT22;8072;52.554;7.966;2023-04-06T04:56:46;0.60;99.90
15947;DHT22;8072;52.554;7.966;2023-04-06T04:59:12;0.60;99.90
15947;DHT22;8072;52.554;7.966;2023-04-06T05:01:38;0.60;99.90
15947;DHT22;8072;52.554;7.966;2023-04-06T05:04:04;0.60;99.90
15947;DHT22;8072;52.554;7.966;2023-04-06T05:06:30;0.60;99.90
15947;DHT22;8072;52.554;7.966;2023-04-06T05:08:56;0.60;99.90
15947;DHT22;8072;52.554;7.966;2023-04-06T05:11:21;0.60;99.90
15947;DHT22;8072;52.554;7.966;2023-04-06T05:13:47;0.60;99.90
15947;DHT22;8072;52.554;7.966;2023-04-06T05:16:13;0.60;99.90
15947;DHT22;8072;52.554;7.966;2023-04-06T05:18:39;0.60;99.90
15947;DHT22;8072;52.554;7.966;2023-04-06T05:21:05;0.60;99.90
15947;DHT22;8072;52.554;7.966;2023-04-06T05:23:31;0.60;99.90
15947;DHT22;8072;52.554;7.966;2023-04-06T05:25:57;0.60;99.90
15947;DHT22;8072;52.554;7.966;2023-04-06T05:28:22;0.60;99.90
15947;DHT22;8072;52.554;7.966;2023-04-06T05:30:48;0.60;99.90
15947;DHT22;8072;52.554;7.966;2023-04-06T05:33:14;0.70;99.90
15947;DHT22;8072;52.554;7.966;2023-04-06T05:35:40;0.70;99.90
15947;DHT22;8072;52.554;7.966;2023-04-06T05:38:08;0.70;99.90
15947;DHT22;8072;52.554;7.966;2023-04-06T05:40:36;0.70;99.90
15947;DHT22;8072;52.554;7.966;2023-04-06T05:43:03;0.70;99.90
15947;DHT22;8072;52.554;7.966;2023-04-06T05:45:30;0.80;99.90
15947;DHT22;8072;52.554;7.966;2023-04-06T05:47:56;0.80;99.90
15947;DHT22;8072;52.554;7.966;2023-04-06T05:50:21;0.80;99.90
15947;DHT22;8072;52.554;7.966;2023-04-06T05:52:48;0.90;99.90
15947;DHT22;8072;52.554;7.966;2023-04-06T05:55:14;0.90;99.90
15947;DHT22;8072;52.554;7.966;2023-04-06T05:57:40;1.00;99.90
15947;DHT22;8072;52.554;7.966;2023-04-06T06:00:06;1.00;99.90
15947;DHT22;8072;52.554;7.966;2023-04-06T06:02:35;1.10;99.90
15947;DHT22;8072;52.554;7.966;2023-04-06T06:05:01;1.10;99.90
15947;DHT22;8072;52.554;7.966;2023-04-06T06:07:27;1.20;99.90
15947;DHT22;8072;52.554;7.966;2023-04-06T06:09:56;1.20;99.90
15947;DHT22;8072;52.554;7.966;2023-04-06T06:12:23;1.30;99.90
15947;DHT22;8072;52.554;7.966;2023-04-06T06:14:49;1.40;99.90
15947;DHT22;8072;52.554;7.966;2023-04-06T06:17:14;1.50;99.90
15947;DHT22;8072;52.554;7.966;2023-04-06T06:19:40;1.50;99.90
15947;DHT22;8072;52.554;7.966;2023-04-06T06:22:08;1.60;99.90
15947;DHT22;8072;52.554;7.966;2023-04-06T06:24:33;1.70;99.90
15947;DHT22;8072;52.554;7.966;2023-04-06T06:26:59;1.80;99.90
15947;DHT22;8072;52.554;7.966;2023-04-06T06:29:25;1.90;99.90
15947;DHT22;8072;52.554;7.966;2023-04-06T06:31:51;1.90;99.90
15947;DHT22;8072;52.554;7.966;2023-04-06T06:34:17;2.00;99.90
15947;DHT22;8072;52.554;7.966;2023-04-06T06:36:43;2.10;99.90
15947;DHT22;8072;52.554;7.966;2023-04-06T06:39:08;2.10;99.90
15947;DHT22;8072;52.554;7.966;2023-04-06T06:41:34;2.20;99.90
15947;DHT22;8072;52.554;7.966;2023-04-06T06:44:01;2.30;99.90
15947;DHT22;8072;52.554;7.966;2023-04-06T06:46:27;2.40;99.90
15947;DHT22;8072;52.554;7.966;2023-04-06T06:48:53;2.50;99.90
15947;DHT22;8072;52.554;7.966;2023-04-06T06:51:19;2.60;99.90
15947;DHT22;8072;52.554;7.966;2023-04-06T06:53:45;2.60;99.90
15947;DHT22;8072;52.554;7.966;2023-04-06T06:56:11;2.70;99.90
15947;DHT22;8072;52.554;7.966;2023-04-06T06:58:38;2.70;99.90
15947;DHT22;8072;52.554;7.966;2023-04-06T07:01:04;2.80;99.90
15947;DHT22;8072;52.554;7.966;2023-04-06T07:03:30;2.80;99.90
15947;DHT22;8072;52.554;7.966;2023-04-06T07:05:56;2.90;99.90
15947;DHT22;8072;52.554;7.966;2023-04-06T07:08:23;3.00;99.90
15947;DHT22;8072;52.554;7.966;2023-04-06T07:10:51;3.10;99.90
15947;DHT22;8072;52.554;7.966;2023-04-06T07:13:21;3.10;99.90
15947;DHT22;8072;52.554;7.966;2023-04-06T07:15:51;3.20;99.90
15947;DHT22;8072;52.554;7.966;2023-04-06T07:18:18;3.30;99.90
15947;DHT22;8072;52.554;7.966;2023-04-06T07:20:44;3.40;99.90
15947;DHT22;8072;52.554;7.966;2023-04-06T07:23:10;3.50;99.90
15947;DHT22;8072;52.554;7.966;2023-04-06T07:25:36;3.50;99.90
15947;DHT22;8072;52.554;7.966;2023-04-06T07:28:05;3.60;99.90
15947;DHT22;8072;52.554;7.966;2023-04-06T07:30:31;3.80;99.90
15947;DHT22;8072;52.554;7.966;2023-04-06T07:32:57;3.90;99.90
15947;DHT22;8072;52.554;7.966;2023-04-06T07:35:25;4.10;99.90
15947;DHT22;8072;52.554;7.966;2023-04-06T07:37:55;4.30;99.90
15947;DHT22;8072;52.554;7.966;2023-04-06T07:40:21;4.50;99.90
15947;DHT22;8072;52.554;7.966;2023-04-06T07:42:47;4.50;99.90
15947;DHT22;8072;52.554;7.966;2023-04-06T07:45:14;4.70;99.90
15947;DHT22;8072;52.554;7.966;2023-04-06T07:47:41;4.70;99.90
15947;DHT22;8072;52.554;7.966;2023-04-06T07:50:07;4.70;99.90
15947;DHT22;8072;52.554;7.966;2023-04-06T07:52:33;4.80;99.90
15947;DHT22;8072;52.554;7.966;2023-04-06T07:54:59;5.00;99.90
15947;DHT22;8072;52.554;7.966;2023-04-06T07:57:25;5.10;99.90
15947;DHT22;8072;52.554;7.966;2023-04-06T07:59:51;5.20;99.90
15947;DHT22;8072;52.554;7.966;2023-04-06T08:02:17;5.30;99.90
15947;DHT22;8072;52.554;7.966;2023-04-06T08:04:43;5.40;99.90
15947;DHT22;8072;52.554;7.966;2023-04-06T08:07:09;5.40;99.90
15947;DHT22;8072;52.554;7.966;2023-04-06T08:09:35;5.50;99.90
15947;DHT22;8072;52.554;7.966;2023-04-06T08:12:01;5.60;99.90
15947;DHT22;8072;52.554;7.966;2023-04-06T08:14:27;5.70;99.90
15947;DHT22;8072;52.554;7.966;2023-04-06T08:16:53;5.80;99.90
15947;DHT22;8072;52.554;7.966;2023-04-06T08:19:18;5.90;99.90
15947;DHT22;8072;52.554;7.966;2023-04-06T08:21:45;6.00;99.90
15947;DHT22;8072;52.554;7.966;2023-04-06T08:24:12;6.10;99.90
15947;DHT22;8072;52.554;7.966;2023-04-06T08:26:37;6.20;99.90
15947;DHT22;8072;52.554;7.966;2023-04-06T08:29:03;6.30;99.90
15947;DHT22;8072;52.554;7.966;2023-04-06T08:31:30;6.40;99.90
15947;DHT22;8072;52.554;7.966;2023-04-06T08:33:56;6.50;99.90
15947;DHT22;8072;52.554;7.966;2023-04-06T08:36:22;6.60;99.90
15947;DHT22;8072;52.554;7.966;2023-04-06T08:38:49;6.70;99.90
15947;DHT22;8072;52.554;7.966;2023-04-06T08:41:15;6.70;99.90
15947;DHT22;8072;52.554;7.966;2023-04-06T08:43:47;6.80;99.90
15947;DHT22;8072;52.554;7.966;2023-04-06T08:46:14;7.00;99.90
15947;DHT22;8072;52.554;7.966;2023-04-06T08:48:42;7.10;99.90
15947;DHT22;8072;52.554;7.966;2023-04-06T08:51:11;7.20;99.90
15947;DHT22;8072;52.554;7.966;2023-04-06T08:53:38;7.30;99.90
15947;DHT22;8072;52.554;7.966;2023-04-06T08:56:04;7.40;99.90
15947;DHT22;8072;52.554;7.966;2023-04-06T08:58:35;7.60;99.90
15947;DHT22;8072;52.554;7.966;2023-04-06T09:01:06;7.70;99.90
15947;DHT22;8072;52.554;7.966;2023-04-06T09:03:37;7.80;99.90
15947;DHT22;8072;52.554;7.966;2023-04-06T09:06:04;7.90;99.90
15947;DHT22;8072;52.554;7.966;2023-04-06T09:08:30;8.00;99.90
15947;DHT22;8072;52.554;7.966;2023-04-06T09:10:59;8.10;99.90
15947;DHT22;8072;52.554;7.966;2023-04-06T09:13:26;8.20;99.90
15947;DHT22;8072;52.554;7.966;2023-04-06T09:16:02;8.40;99.90
15947;DHT22;8072;52.554;7.966;2023-04-06T09:18:29;8.50;99.90
15947;DHT22;8072;52.554;7.966;2023-04-06T09:21:04;8.60;99.90
15947;DHT22;8072;52.554;7.966;2023-04-06T09:23:31;8.70;99.90
15947;DHT22;8072;52.554;7.966;2023-04-06T09:26:16;8.80;99.90
15947;DHT22;8072;52.554;7.966;2023-04-06T09:28:50;8.80;99.90
15947;DHT22;8072;52.554;7.966;2023-04-06T09:31:24;8.90;99.90
15947;DHT22;8072;52.554;7.966;2023-04-06T09:33:50;9.00;99.90
15947;DHT22;8072;52.554;7.966;2023-04-06T09:36:18;9.10;99.90
15947;DHT22;8072;52.554;7.966;2023-04-06T09:39:02;9.30;99.90
15947;DHT22;8072;52.554;7.966;2023-04-06T09:41:32;9.30;99.90
15947;DHT22;8072;52.554;7.966;2023-04-06T09:44:08;9.30;99.90
15947;DHT22;8072;52.554;7.966;2023-04-06T09:49:02;9.60;99.90
15947;DHT22;8072;52.554;7.966;2023-04-06T09:51:55;9.70;99.90
15947;DHT22;8072;52.554;7.966;2023-04-06T09:54:23;9.80;99.90
15947;DHT22;8072;52.554;7.966;2023-04-06T10:02:44;10.20;99.90
15947;DHT22;8072;52.554;7.966;2023-04-06T10:07:57;10.40;99.90
15947;DHT22;8072;52.554;7.966;2023-04-06T10:10:26;10.60;99.90
15947;DHT22;8072;52.554;7.966;2023-04-06T10:12:52;10.70;99.90
15947;DHT22;8072;52.554;7.966;2023-04-06T10:15:19;10.70;99.90
15947;DHT22;8072;52.554;7.966;2023-04-06T10:17:45;10.80;99.90
15947;DHT22;8072;52.554;7.966;2023-04-06T10:22:54;10.90;99.90
15947;DHT22;8072;52.554;7.966;2023-04-06T10:25:32;11.00;99.90
15947;DHT22;8072;52.554;7.966;2023-04-06T10:28:19;11.20;99.90
15947;DHT22;8072;52.554;7.966;2023-04-06T10:30:45;11.20;99.90
15947;DHT22;8072;52.554;7.966;2023-04-06T10:33:18;11.20;99.90
15947;DHT22;8072;52.554;7.966;2023-04-06T10:35:44;11.30;99.90
15947;DHT22;8072;52.554;7.966;2023-04-06T10:38:11;11.40;99.90
15947;DHT22;8072;52.554;7.966;2023-04-06T10:40:41;11.50;99.90
15947;DHT22;8072;52.554;7.966;2023-04-06T10:43:18;11.60;99.90
15947;DHT22;8072;52.554;7.966;2023-04-06T10:45:45;11.70;99.90
15947;DHT22;8072;52.554;7.966;2023-04-06T10:48:19;11.90;99.90
15947;DHT22;8072;52.554;7.966;2023-04-06T10:50:48;12.00;99.90
15947;DHT22;8072;52.554;7.966;2023-04-06T10:53:25;12.10;99.90
15947;DHT22;8072;52.554;7.966;2023-04-06T10:55:52;12.20;99.90
15947;DHT22;8072;52.554;7.966;2023-04-06T10:58:18;12.40;99.90
15947;DHT22;8072;52.554;7.966;2023-04-06T11:00:46;12.50;99.90
15947;DHT22;8072;52.554;7.966;2023-04-06T11:03:12;12.60;99.90
15947;DHT22;8072;52.554;7.966;2023-04-06T11:05:38;12.80;99.90
15947;DHT22;8072;52.554;7.966;2023-04-06T11:08:04;12.80;99.90
15947;DHT22;8072;52.554;7.966;2023-04-06T11:10:30;12.90;99.90
15947;DHT22;8072;52.554;7.966;2023-04-06T11:12:58;13.00;99.90
15947;DHT22;8072;52.554;7.966;2023-04-06T11:15:24;13.10;99.90
15947;DHT22;8072;52.554;7.966;2023-04-06T11:17:50;13.20;99.90
15947;DHT22;8072;52.554;7.966;2023-04-06T11:20:16;13.30;99.90
15947;DHT22;8072;52.554;7.966;2023-04-06T11:22:50;13.60;99.90
15947;DHT22;8072;52.554;7.966;2023-04-06T11:25:16;13.60;99.90
15947;DHT22;8072;52.554;7.966;2023-04-06T11:27:42;13.70;99.90
15947;DHT22;8072;52.554;7.966;2023-04-06T11:30:09;13.70;99.90
15947;DHT22;8072;52.554;7.966;2023-04-06T11:32:42;13.80;99.90
15947;DHT22;8072;52.554;7.966;2023-04-06T11:35:22;13.90;99.90
15947;DHT22;8072;52.554;7.966;2023-04-06T11:37:49;14.00;99.90
15947;DHT22;8072;52.554;7.966;2023-04-06T11:40:15;14.20;99.90
15947;DHT22;8072;52.554;7.966;2023-04-06T11:42:41;14.30;99.90
15947;DHT22;8072;52.554;7.966;2023-04-06T11:45:07;14.40;99.90
15947;DHT22;8072;52.554;7.966;2023-04-06T11:47:36;14.50;99.90
15947;DHT22;8072;52.554;7.966;2023-04-06T11:50:10;14.70;99.90
15947;DHT22;8072;52.554;7.966;2023-04-06T11:52:42;14.80;99.90
15947;DHT22;8072;52.554;7.966;2023-04-06T11:55:16;14.90;99.90
15947;DHT22;8072;52.554;7.966;2023-04-06T11:57:42;14.90;99.90
15947;DHT22;8072;52.554;7.966;2023-04-06T12:00:09;14.60;99.90
15947;DHT22;8072;52.554;7.966;2023-04-06T12:02:39;14.60;99.90
15947;DHT22;8072;52.554;7.966;2023-04-06T12:05:06;14.60;99.90
15947;DHT22;8072;52.554;7.966;2023-04-06T12:07:32;14.90;99.90
15947;DHT22;8072;52.554;7.966;2023-04-06T12:10:00;15.20;99.90
15947;DHT22;8072;52.554;7.966;2023-04-06T12:12:26;15.40;99.90
15947;DHT22;8072;52.554;7.966;2023-04-06T12:14:52;15.50;99.90
15947;DHT22;8072;52.554;7.966;2023-04-06T12:17:19;15.60;99.90
15947;DHT22;8072;52.554;7.966;2023-04-06T12:19:45;15.60;99.90
15947;DHT22;8072;52.554;7.966;2023-04-06T12:22:11;15.80;99.90
15947;DHT22;8072;52.554;7.966;2023-04-06T12:24:37;15.60;99.90
15947;DHT22;8072;52.554;7.966;2023-04-06T12:27:03;15.60;99.90
15947;DHT22;8072;52.554;7.966;2023-04-06T12:29:29;15.70;99.90
15947;DHT22;8072;52.554;7.966;2023-04-06T12:31:55;15.70;99.90
15947;DHT22;8072;52.554;7.966;2023-04-06T12:34:21;15.70;99.90
15947;DHT22;8072;52.554;7.966;2023-04-06T12:36:47;15.60;99.90
15947;DHT22;8072;52.554;7.966;2023-04-06T12:39:13;15.50;99.90
15947;DHT22;8072;52.554;7.966;2023-04-06T12:41:39;15.50;99.90
15947;DHT22;8072;52.554;7.966;2023-04-06T12:44:06;15.50;99.90
15947;DHT22;8072;52.554;7.966;2023-04-06T12:46:32;15.60;99.90
15947;DHT22;8072;52.554;7.966;2023-04-06T12:48:58;15.80;99.90
15947;DHT22;8072;52.554;7.966;2023-04-06T12:51:27;15.90;99.90
15947;DHT22;8072;52.554;7.966;2023-04-06T12:53:53;16.10;99.90
15947;DHT22;8072;52.554;7.966;2023-04-06T12:56:21;16.10;99.90
15947;DHT22;8072;52.554;7.966;2023-04-06T12:58:48;16.20;99.90
15947;DHT22;8072;52.554;7.966;2023-04-06T13:01:14;15.90;99.90
15947;DHT22;8072;52.554;7.966;2023-04-06T13:03:40;16.00;99.40
15947;DHT22;8072;52.554;7.966;2023-04-06T13:06:06;16.10;99.50
15947;DHT22;8072;52.554;7.966;2023-04-06T13:08:34;16.20;99.70
15947;DHT22;8072;52.554;7.966;2023-04-06T13:11:01;15.90;97.30
15947;DHT22;8072;52.554;7.966;2023-04-06T13:13:28;15.60;99.70
15947;DHT22;8072;52.554;7.966;2023-04-06T13:15:58;15.40;98.50
15947;DHT22;8072;52.554;7.966;2023-04-06T13:18:24;15.40;99.90
15947;DHT22;8072;52.554;7.966;2023-04-06T13:20:50;15.60;99.90
15947;DHT22;8072;52.554;7.966;2023-04-06T13:23:16;15.80;99.90
15947;DHT22;8072;52.554;7.966;2023-04-06T13:25:42;15.90;99.90
15947;DHT22;8072;52.554;7.966;2023-04-06T13:28:09;16.00;99.90
15947;DHT22;8072;52.554;7.966;2023-04-06T13:30:35;16.10;97.80
15947;DHT22;8072;52.554;7.966;2023-04-06T13:33:02;16.00;96.70
15947;DHT22;8072;52.554;7.966;2023-04-06T13:35:28;16.00;98.90
15947;DHT22;8072;52.554;7.966;2023-04-06T13:37:53;16.00;99.90
15947;DHT22;8072;52.554;7.966;2023-04-06T13:40:19;16.00;99.90
15947;DHT22;8072;52.554;7.966;2023-04-06T13:42:47;15.90;97.70
15947;DHT22;8072;52.554;7.966;2023-04-06T13:45:13;15.70;98.60
15947;DHT22;8072;52.554;7.966;2023-04-06T13:47:38;15.70;98.80
15947;DHT22;8072;52.554;7.966;2023-04-06T13:50:05;15.80;99.60
15947;DHT22;8072;52.554;7.966;2023-04-06T13:52:31;15.80;99.10
15947;DHT22;8072;52.554;7.966;2023-04-06T13:54:57;15.80;99.60
15947;DHT22;8072;52.554;7.966;2023-04-06T13:57:23;15.60;99.80
15947;DHT22;8072;52.554;7.966;2023-04-06T13:59:49;15.50;99.90
15947;DHT22;8072;52.554;7.966;2023-04-06T14:02:17;15.50;99.90
15947;DHT22;8072;52.554;7.966;2023-04-06T14:04:45;15.50;99.60
15947;DHT22;8072;52.554;7.966;2023-04-06T14:07:12;15.40;99.30
15947;DHT22;8072;52.554;7.966;2023-04-06T14:09:37;15.40;99.90
15947;DHT22;8072;52.554;7.966;2023-04-06T14:12:03;15.30;99.90
15947;DHT22;8072;52.554;7.966;2023-04-06T14:14:29;15.30;99.90
15947;DHT22;8072;52.554;7.966;2023-04-06T14:16:55;15.30;99.70
15947;DHT22;8072;52.554;7.966;2023-04-06T14:19:21;15.30;99.90
15947;DHT22;8072;52.554;7.966;2023-04-06T14:21:47;15.30;99.90
15947;DHT22;8072;52.554;7.966;2023-04-06T14:24:14;15.10;99.60
15947;DHT22;8072;52.554;7.966;2023-04-06T14:26:41;15.10;99.90
15947;DHT22;8072;52.554;7.966;2023-04-06T14:29:08;14.90;99.90
15947;DHT22;8072;52.554;7.966;2023-04-06T14:31:34;14.70;99.90
15947;DHT22;8072;52.554;7.966;2023-04-06T14:34:01;14.60;99.90
15947;DHT22;8072;52.554;7.966;2023-04-06T14:36:28;14.60;99.90
15947;DHT22;8072;52.554;7.966;2023-04-06T14:38:57;14.40;99.90
15947;DHT22;8072;52.554;7.966;2023-04-06T14:41:24;14.30;99.90
15947;DHT22;8072;52.554;7.966;2023-04-06T14:43:53;14.30;99.90
15947;DHT22;8072;52.554;7.966;2023-04-06T14:46:18;14.40;99.90
15947;DHT22;8072;52.554;7.966;2023-04-06T14:48:45;14.40;99.90
15947;DHT22;8072;52.554;7.966;2023-04-06T14:51:11;14.30;99.90
15947;DHT22;8072;52.554;7.966;2023-04-06T14:53:37;14.30;99.90
15947;DHT22;8072;52.554;7.966;2023-04-06T14:56:03;14.40;99.90
15947;DHT22;8072;52.554;7.966;2023-04-06T14:58:29;14.30;99.90
15947;DHT22;8072;52.554;7.966;2023-04-06T15:00:57;14.20;99.90
15947;DHT22;8072;52.554;7.966;2023-04-06T15:03:24;14.10;99.90
15947;DHT22;8072;52.554;7.966;2023-04-06T15:05:54;14.00;99.90
15947;DHT22;8072;52.554;7.966;2023-04-06T15:08:21;13.90;99.90
15947;DHT22;8072;52.554;7.966;2023-04-06T15:10:48;13.90;99.90
15947;DHT22;8072;52.554;7.966;2023-04-06T15:13:14;13.80;99.90
15947;DHT22;8072;52.554;7.966;2023-04-06T15:15:44;13.80;99.90
15947;DHT22;8072;52.554;7.966;2023-04-06T15:18:10;13.80;99.90
15947;DHT22;8072;52.554;7.966;2023-04-06T15:20:36;13.80;99.90
15947;DHT22;8072;52.554;7.966;2023-04-06T15:23:03;13.80;99.90
15947;DHT22;8072;52.554;7.966;2023-04-06T15:25:30;13.80;99.90
15947;DHT22;8072;52.554;7.966;2023-04-06T15:27:56;13.90;99.90
15947;DHT22;8072;52.554;7.966;2023-04-06T15:30:22;13.90;99.60
15947;DHT22;8072;52.554;7.966;2023-04-06T15:32:57;13.80;99.90
15947;DHT22;8072;52.554;7.966;2023-04-06T15:35:23;13.90;99.90
15947;DHT22;8072;52.554;7.966;2023-04-06T15:37:49;13.90;99.90
15947;DHT22;8072;52.554;7.966;2023-04-06T15:40:14;13.90;99.90
15947;DHT22;8072;52.554;7.966;2023-04-06T15:42:41;13.90;99.90
15947;DHT22;8072;52.554;7.966;2023-04-06T15:45:11;13.90;99.90
15947;DHT22;8072;52.554;7.966;2023-04-06T15:47:41;13.90;99.90
15947;DHT22;8072;52.554;7.966;2023-04-06T15:50:07;13.90;99.90
15947;DHT22;8072;52.554;7.966;2023-04-06T15:52:34;13.90;99.90
15947;DHT22;8072;52.554;7.966;2023-04-06T15:55:00;13.90;99.90
15947;DHT22;8072;52.554;7.966;2023-04-06T15:57:26;14.00;99.90
15947;DHT22;8072;52.554;7.966;2023-04-06T15:59:51;14.00;99.90
15947;DHT22;8072;52.554;7.966;2023-04-06T16:02:20;13.90;99.90
15947;DHT22;8072;52.554;7.966;2023-04-06T16:04:48;14.00;99.90
15947;DHT22;8072;52.554;7.966;2023-04-06T16:07:14;13.90;99.90